Time,TemperatureF,DewpointF,PressureIn,WindDirection,WindDirectionDegrees,WindSpeedMPH,WindSpeedGustMPH,Humidity,HourlyPrecipIn,Conditions,Clouds,dailyrainin,SoftwareType,DateUTC
2013-01-14 00:01:00,-2.0,-37.2,29.06,ENE,68,0.0,0.0,16,0.00,,,0.00,VWS V13.01,2013-01-14 06:01:00,
2013-01-14 00:06:00,-1.8,-37.0,29.06,ENE,68,0.0,0.0,16,0.00,,,0.00,VWS V13.01,2013-01-14 06:06:00,
2013-01-14 00:11:00,-2.0,-37.2,29.06,ENE,68,0.0,0.0,16,0.00,,,0.00,VWS V13.01,2013-01-14 06:11:00,
2013-01-14 00:16:00,-1.8,-37.0,29.06,ENE,68,0.0,0.0,16,0.00,,,0.00,VWS V13.01,2013-01-14 06:16:00,
2013-01-14 00:21:00,-2.2,-37.3,29.06,ENE,69,0.0,0.0,16,0.00,,,0.00,VWS V13.01,2013-01-14 06:21:00,
2013-01-14 00:26:00,-2.0,-37.2,29.06,ENE,68,0.0,0.0,16,0.00,,,0.00,VWS V13.01,2013-01-14 06:26:00,
2013-01-14 00:31:00,-1.3,-36.6,29.06,ENE,66,0.0,0.0,16,0.00,,,0.00,VWS V13.01,2013-01-14 06:31:00,
2013-01-14 00:36:00,-1.5,-36.7,29.06,ENE,66,0.0,0.0,16,0.00,,,0.00,VWS V13.01,2013-01-14 06:36:00,
2013-01-14 00:41:00,-0.9,-36.3,29.06,ENE,75,0.0,0.0,16,0.00,,,0.00,VWS V13.01,2013-01-14 06:41:00,
2013-01-14 00:46:00,-1.3,-36.6,29.06,ENE,75,0.0,0.0,16,0.00,,,0.00,VWS V13.01,2013-01-14 06:46:00,
2013-01-14 00:51:00,-1.5,-36.7,29.06,ENE,75,0.0,0.0,16,0.00,,,0.00,VWS V13.01,2013-01-14 06:51:00,
2013-01-14 00:56:00,-1.1,-36.4,29.06,ENE,75,0.0,0.0,16,0.00,,,0.00,VWS V13.01,2013-01-14 06:56:00,
2013-01-14 01:02:00,-1.5,-36.7,29.06,ENE,75,0.0,0.0,16,0.00,,,0.00,VWS V13.01,2013-01-14 07:02:00,
2013-01-14 01:07:00,-0.9,-36.3,29.06,ENE,58,0.0,0.0,16,0.00,,,0.00,VWS V13.01,2013-01-14 07:07:00,
2013-01-14 01:12:00,-1.3,-36.6,29.06,ENE,58,0.0,0.0,16,0.00,,,0.00,VWS V13.01,2013-01-14 07:12:00,
2013-01-14 01:17:00,-1.7,-36.9,29.06,ENE,58,0.0,0.0,16,0.00,,,0.00,VWS V13.01,2013-01-14 07:17:00,
2013-01-14 01:22:00,-2.0,-37.2,29.06,ENE,58,0.0,0.0,16,0.00,,,0.00,VWS V13.01,2013-01-14 07:22:00,
2013-01-14 01:27:00,-2.0,-37.2,29.06,ENE,58,0.0,0.0,16,0.00,,,0.00,VWS V13.01,2013-01-14 07:27:00,
2013-01-14 01:32:00,-1.7,-36.9,29.06,ENE,58,0.0,0.0,16,0.00,,,0.00,VWS V13.01,2013-01-14 07:32:00,
2013-01-14 01:37:00,-1.5,-36.7,29.06,ENE,58,0.0,0.0,16,0.00,,,0.00,VWS V13.01,2013-01-14 07:37:00,
2013-01-14 01:42:00,-1.7,-36.9,29.09,ENE,58,0.0,0.0,16,0.00,,,0.00,VWS V13.01,2013-01-14 07:42:00,
2013-01-14 01:47:00,-0.6,-36.0,29.09,WNW,299,0.0,0.0,16,0.00,,,0.00,VWS V13.01,2013-01-14 07:47:00,
2013-01-14 01:52:00,0.0,-35.5,29.09,WNW,299,0.0,0.0,16,0.00,,,0.00,VWS V13.01,2013-01-14 07:52:00,
2013-01-14 01:57:00,-0.6,-36.0,29.09,WNW,303,0.0,0.0,16,0.00,,,0.00,VWS V13.01,2013-01-14 07:57:00,
2013-01-14 02:02:00,-0.2,-35.7,29.09,NW,314,0.0,0.0,16,0.00,,,0.00,VWS V13.01,2013-01-14 08:02:00,
2013-01-14 02:07:00,-0.2,-35.7,29.09,NW,313,0.0,0.0,16,0.00,,,0.00,VWS V13.01,2013-01-14 08:07:00,
2013-01-14 02:12:00,-0.2,-35.7,29.09,NNE,19,0.0,0.0,16,0.00,,,0.00,VWS V13.01,2013-01-14 08:12:00,
2013-01-14 02:17:00,0.0,-35.5,29.09,NNE,19,0.0,0.0,16,0.00,,,0.00,VWS V13.01,2013-01-14 08:17:00,
2013-01-14 02:22:00,-0.6,-36.0,29.09,NNE,19,0.0,0.0,16,0.00,,,0.00,VWS V13.01,2013-01-14 08:22:00,
2013-01-14 02:27:00,-0.9,-36.3,29.09,NNE,19,0.0,0.0,16,0.00,,,0.00,VWS V13.01,2013-01-14 08:27:00,
2013-01-14 02:32:00,-1.3,-36.6,29.09,NNE,19,0.0,0.0,16,0.00,,,0.00,VWS V13.01,2013-01-14 08:32:00,
2013-01-14 02:37:00,-1.7,-36.9,29.09,NNE,19,0.0,0.0,16,0.00,,,0.00,VWS V13.01,2013-01-14 08:37:00,
2013-01-14 02:42:00,-1.5,-36.7,29.09,NNE,24,0.0,0.0,16,0.00,,,0.00,VWS V13.01,2013-01-14 08:42:00,
2013-01-14 02:47:00,-0.9,-36.3,29.09,NNE,24,0.0,0.0,16,0.00,,,0.00,VWS V13.01,2013-01-14 08:47:00,
2013-01-14 02:52:00,-1.1,-36.4,29.09,NNE,24,0.0,0.0,16,0.00,,,0.00,VWS V13.01,2013-01-14 08:52:00,
2013-01-14 02:57:00,-1.3,-36.6,29.09,NNE,24,0.0,0.0,16,0.00,,,0.00,VWS V13.01,2013-01-14 08:57:00,
2013-01-14 03:02:00,-1.5,-36.7,29.09,NNE,24,0.0,0.0,16,0.00,,,0.00,VWS V13.01,2013-01-14 09:02:00,
2013-01-14 03:07:00,-0.8,-36.1,29.09,NNE,24,0.0,0.0,16,0.00,,,0.00,VWS V13.01,2013-01-14 09:07:00,
2013-01-14 03:12:00,-1.1,-36.4,29.09,NNE,24,0.0,0.0,16,0.00,,,0.00,VWS V13.01,2013-01-14 09:12:00,
2013-01-14 03:17:00,-1.8,-37.0,29.09,NNE,24,0.0,0.0,16,0.00,,,0.00,VWS V13.01,2013-01-14 09:17:00,
2013-01-14 03:22:00,-1.5,-36.7,29.09,NNE,24,0.0,0.0,16,0.00,,,0.00,VWS V13.01,2013-01-14 09:22:00,
2013-01-14 03:27:00,-1.3,-36.6,29.09,NNE,24,0.0,0.0,16,0.00,,,0.00,VWS V13.01,2013-01-14 09:27:00,
2013-01-14 03:32:00,-0.9,-36.3,29.09,NNE,24,0.0,0.0,16,0.00,,,0.00,VWS V13.01,2013-01-14 09:32:00,
2013-01-14 03:37:00,-0.9,-36.3,29.09,NNE,24,0.0,0.0,16,0.00,,,0.00,VWS V13.01,2013-01-14 09:37:00,
2013-01-14 03:42:00,-1.3,-36.6,29.09,NNE,24,0.0,0.0,16,0.00,,,0.00,VWS V13.01,2013-01-14 09:42:00,
2013-01-14 03:47:00,-1.3,-36.6,29.09,NNE,24,0.0,0.0,16,0.00,,,0.00,VWS V13.01,2013-01-14 09:47:00,
2013-01-14 03:52:00,-1.5,-36.7,29.09,NNE,24,0.0,0.0,16,0.00,,,0.00,VWS V13.01,2013-01-14 09:52:00,
2013-01-14 03:57:00,-2.2,-37.3,29.12,NNE,24,0.0,0.0,16,0.00,,,0.00,VWS V13.01,2013-01-14 09:57:00,
2013-01-14 04:02:00,-2.0,-37.2,29.12,NNE,24,0.0,0.0,16,0.00,,,0.00,VWS V13.01,2013-01-14 10:02:00,
2013-01-14 04:07:00,-1.3,-36.6,29.12,NNE,24,0.0,0.0,16,0.00,,,0.00,VWS V13.01,2013-01-14 10:07:00,
2013-01-14 04:12:00,-0.8,-36.1,29.12,NNE,24,0.0,0.0,16,0.00,,,0.00,VWS V13.01,2013-01-14 10:12:00,
2013-01-14 04:17:00,-1.1,-36.4,29.12,NNE,18,0.0,0.0,16,0.00,,,0.00,VWS V13.01,2013-01-14 10:17:00,
2013-01-14 04:22:00,-1.1,-36.4,29.12,ENE,72,0.0,0.0,16,0.00,,,0.00,VWS V13.01,2013-01-14 10:22:00,
2013-01-14 04:27:00,-0.6,-36.0,29.09,East,85,0.0,0.0,16,0.00,,,0.00,VWS V13.01,2013-01-14 10:27:00,
2013-01-14 04:32:00,-0.9,-36.3,29.09,ENE,65,0.0,0.0,16,0.00,,,0.00,VWS V13.01,2013-01-14 10:32:00,
2013-01-14 04:37:00,-1.1,-36.4,29.09,ENE,60,0.0,0.0,16,0.00,,,0.00,VWS V13.01,2013-01-14 10:37:00,
2013-01-14 04:42:00,-1.3,-36.6,29.09,ENE,65,0.0,0.0,16,0.00,,,0.00,VWS V13.01,2013-01-14 10:42:00,
2013-01-14 04:47:00,-1.3,-36.6,29.09,East,87,0.0,0.0,16,0.00,,,0.00,VWS V13.01,2013-01-14 10:47:00,
2013-01-14 04:52:00,-1.3,-36.6,29.09,NNE,28,0.0,0.0,16,0.00,,,0.00,VWS V13.01,2013-01-14 10:52:00,
2013-01-14 04:57:00,-1.1,-36.4,29.12,NNW,338,2.2,2.2,16,0.00,,,0.00,VWS V13.01,2013-01-14 10:57:00,
2013-01-14 05:02:00,-0.8,-36.1,29.12,North,4,0.0,0.0,16,0.00,,,0.00,VWS V13.01,2013-01-14 11:02:00,
2013-01-14 05:07:00,-0.8,-36.1,29.12,NNE,33,0.0,0.0,16,0.00,,,0.00,VWS V13.01,2013-01-14 11:07:00,
2013-01-14 05:12:00,-0.9,-36.3,29.12,NE,34,0.0,0.0,16,0.00,,,0.00,VWS V13.01,2013-01-14 11:12:00,
2013-01-14 05:17:00,-0.6,-36.0,29.12,East,85,0.0,0.0,16,0.00,,,0.00,VWS V13.01,2013-01-14 11:17:00,
2013-01-14 05:22:00,-0.2,-35.7,29.12,East,90,0.0,0.0,16,0.00,,,0.00,VWS V13.01,2013-01-14 11:22:00,
2013-01-14 05:27:00,-0.2,-35.7,29.12,ENE,59,3.6,3.6,16,0.00,,,0.00,VWS V13.01,2013-01-14 11:27:00,
2013-01-14 05:32:00,0.3,-35.2,29.12,NE,37,2.7,2.7,16,0.00,,,0.00,VWS V13.01,2013-01-14 11:32:00,
2013-01-14 05:37:00,0.3,-35.2,29.12,ESE,108,0.0,2.2,16,0.00,,,0.00,VWS V13.01,2013-01-14 11:37:00,
2013-01-14 05:42:00,0.0,-35.5,29.15,ENE,60,0.0,0.0,16,0.00,,,0.00,VWS V13.01,2013-01-14 11:42:00,
2013-01-14 05:47:00,0.1,-35.4,29.15,East,87,0.0,0.0,16,0.00,,,0.00,VWS V13.01,2013-01-14 11:47:00,
2013-01-14 05:52:00,0.0,-35.5,29.15,East,89,0.0,0.0,16,0.00,,,0.00,VWS V13.01,2013-01-14 11:52:00,
2013-01-14 05:57:00,-0.6,-36.0,29.15,ENE,59,0.0,0.0,16,0.00,,,0.00,VWS V13.01,2013-01-14 11:57:00,
2013-01-14 06:02:00,-0.8,-36.1,29.15,NE,52,0.0,0.0,16,0.00,,,0.00,VWS V13.01,2013-01-14 12:02:00,
2013-01-14 06:07:00,-0.9,-36.3,29.15,NE,52,0.0,0.0,16,0.00,,,0.00,VWS V13.01,2013-01-14 12:07:00,
2013-01-14 06:12:00,-1.5,-36.7,29.15,NE,48,0.0,0.0,16,0.00,,,0.00,VWS V13.01,2013-01-14 12:12:00,
2013-01-14 06:17:00,-1.3,-36.6,29.15,NE,48,0.0,0.0,16,0.00,,,0.00,VWS V13.01,2013-01-14 12:17:00,
2013-01-14 06:22:00,-1.3,-36.6,29.15,ENE,77,3.6,3.6,16,0.00,,,0.00,VWS V13.01,2013-01-14 12:22:00,
2013-01-14 06:27:00,-1.1,-36.4,29.15,East,80,0.0,0.0,16,0.00,,,0.00,VWS V13.01,2013-01-14 12:27:00,
2013-01-14 06:32:00,-1.3,-36.6,29.15,ENE,77,0.0,0.0,16,0.00,,,0.00,VWS V13.01,2013-01-14 12:32:00,
2013-01-14 06:37:00,-1.3,-36.6,29.15,ENE,70,0.0,0.0,16,0.00,,,0.00,VWS V13.01,2013-01-14 12:37:00,
2013-01-14 06:42:00,-0.9,-36.3,29.15,East,90,2.2,2.2,16,0.00,,,0.00,VWS V13.01,2013-01-14 12:42:00,
2013-01-14 06:47:00,-1.1,-36.4,29.15,East,96,0.0,0.0,16,0.00,,,0.00,VWS V13.01,2013-01-14 12:47:00,
2013-01-14 06:52:00,-0.9,-36.3,29.18,ENE,64,0.0,0.0,16,0.00,,,0.00,VWS V13.01,2013-01-14 12:52:00,
2013-01-14 06:57:00,-1.3,-36.6,29.18,ENE,65,0.0,0.0,16,0.00,,,0.00,VWS V13.01,2013-01-14 12:57:00,
2013-01-14 07:02:00,-0.8,-36.1,29.18,East,80,2.7,2.7,16,0.00,,,0.00,VWS V13.01,2013-01-14 13:02:00,
2013-01-14 07:07:00,-0.9,-36.3,29.18,East,81,0.0,0.0,16,0.00,,,0.00,VWS V13.01,2013-01-14 13:07:00,
2013-01-14 07:12:00,-1.1,-36.4,29.18,ENE,69,0.0,0.0,16,0.00,,,0.00,VWS V13.01,2013-01-14 13:12:00,
2013-01-14 07:17:00,-0.9,-36.3,29.18,NE,38,0.0,0.0,16,0.00,,,0.00,VWS V13.01,2013-01-14 13:17:00,
2013-01-14 07:22:00,-1.3,-36.6,29.18,NE,38,0.0,4.0,16,0.00,,,0.00,VWS V13.01,2013-01-14 13:22:00,
2013-01-14 07:27:00,-1.7,-36.9,29.18,ENE,68,0.0,0.0,16,0.00,,,0.00,VWS V13.01,2013-01-14 13:27:00,
2013-01-14 07:32:00,-1.7,-36.9,29.18,East,90,0.0,0.0,16,0.00,,,0.00,VWS V13.01,2013-01-14 13:32:00,
2013-01-14 07:37:00,-1.3,-36.6,29.18,East,89,0.0,0.0,16,0.00,,,0.00,VWS V13.01,2013-01-14 13:37:00,
2013-01-14 07:42:00,-1.5,-36.7,29.18,East,97,0.0,0.0,16,0.00,,,0.00,VWS V13.01,2013-01-14 13:42:00,
2013-01-14 07:47:00,-2.2,-37.3,29.18,East,93,0.0,0.0,16,0.00,,,0.00,VWS V13.01,2013-01-14 13:47:00,
2013-01-14 07:52:00,-2.2,-37.3,29.18,NE,51,0.0,0.0,16,0.00,,,0.00,VWS V13.01,2013-01-14 13:52:00,
2013-01-14 07:57:00,-1.3,-36.6,29.18,East,87,2.2,2.7,16,0.00,,,0.00,VWS V13.01,2013-01-14 13:57:00,
2013-01-14 08:02:00,-1.3,-36.6,29.18,East,88,0.0,0.0,16,0.00,,,0.00,VWS V13.01,2013-01-14 14:02:00,
2013-01-14 08:07:00,-0.4,-35.8,29.18,East,96,0.0,0.0,16,0.00,,,0.00,VWS V13.01,2013-01-14 14:07:00,
2013-01-14 08:12:00,0.9,-34.8,29.21,ENE,60,0.0,0.0,16,0.00,,,0.00,VWS V13.01,2013-01-14 14:12:00,
2013-01-14 08:17:00,2.3,-33.6,29.21,East,100,0.0,0.0,16,0.00,,,0.00,VWS V13.01,2013-01-14 14:17:00,
2013-01-14 08:22:00,3.2,-32.8,29.21,NNE,25,0.0,0.0,16,0.00,,,0.00,VWS V13.01,2013-01-14 14:22:00,
2013-01-14 08:27:00,4.1,-32.1,29.21,East,97,0.0,0.0,16,0.00,,,0.00,VWS V13.01,2013-01-14 14:27:00,
2013-01-14 08:32:00,5.0,-31.4,29.21,ESE,110,0.0,0.0,16,0.00,,,0.00,VWS V13.01,2013-01-14 14:32:00,
2013-01-14 08:37:00,3.9,-32.3,29.21,ENE,68,2.2,3.6,16,0.00,,,0.00,VWS V13.01,2013-01-14 14:37:00,
2013-01-14 08:42:00,4.5,-31.8,29.21,NE,52,0.0,3.6,16,0.00,,,0.00,VWS V13.01,2013-01-14 14:42:00,
2013-01-14 08:47:00,5.9,-30.6,29.21,East,100,0.0,0.0,16,0.00,,,0.00,VWS V13.01,2013-01-14 14:47:00,
2013-01-14 08:52:00,6.4,-30.2,29.21,ESE,105,0.0,0.0,16,0.00,,,0.00,VWS V13.01,2013-01-14 14:52:00,
2013-01-14 08:57:00,7.2,-29.6,29.21,NE,52,0.0,0.0,16,0.00,,,0.00,VWS V13.01,2013-01-14 14:57:00,
2013-01-14 09:02:00,8.6,-28.4,29.21,ENE,70,0.0,3.1,16,0.00,,,0.00,VWS V13.01,2013-01-14 15:02:00,
2013-01-14 09:07:00,8.6,-28.4,29.21,East,90,2.7,2.7,16,0.00,,,0.00,VWS V13.01,2013-01-14 15:07:00,
2013-01-14 09:12:00,9.0,-28.1,29.21,East,81,3.1,4.9,16,0.00,,,0.00,VWS V13.01,2013-01-14 15:12:00,
2013-01-14 09:17:00,8.1,-28.8,29.21,ESE,115,0.0,2.7,16,0.00,,,0.00,VWS V13.01,2013-01-14 15:17:00,
2013-01-14 09:22:00,7.9,-29.0,29.21,East,81,3.6,3.6,16,0.00,,,0.00,VWS V13.01,2013-01-14 15:22:00,
2013-01-14 09:27:00,10.0,-27.2,29.21,ESE,111,2.2,2.2,16,0.00,,,0.00,VWS V13.01,2013-01-14 15:27:00,
2013-01-14 09:32:00,13.3,-24.5,29.21,North,357,0.0,0.0,16,0.00,,,0.00,VWS V13.01,2013-01-14 15:32:00,
2013-01-14 09:37:00,13.5,-24.4,29.21,NW,320,0.0,0.0,16,0.00,,,0.00,VWS V13.01,2013-01-14 15:37:00,
2013-01-14 09:42:00,14.2,-23.8,29.21,NE,39,2.7,2.7,16,0.00,,,0.00,VWS V13.01,2013-01-14 15:42:00,
2013-01-14 09:47:00,13.6,-24.2,29.21,NNE,16,3.6,3.6,16,0.00,,,0.00,VWS V13.01,2013-01-14 15:47:00,
2013-01-14 09:52:00,12.7,-23.8,29.23,SE,126,3.1,3.1,17,0.00,,,0.00,VWS V13.01,2013-01-14 15:52:00,
2013-01-14 09:57:00,11.5,-24.9,29.23,ENE,62,2.2,2.2,17,0.00,,,0.00,VWS V13.01,2013-01-14 15:57:00,
2013-01-14 10:02:00,13.5,-24.4,29.23,NE,47,5.4,5.4,16,0.00,,,0.00,VWS V13.01,2013-01-14 16:02:00,
2013-01-14 10:07:00,15.1,-23.0,29.21,NE,35,0.0,2.2,16,0.00,,,0.00,VWS V13.01,2013-01-14 16:07:00,
2013-01-14 10:12:00,15.4,-22.7,29.21,East,91,3.1,3.1,16,0.00,,,0.00,VWS V13.01,2013-01-14 16:12:00,
2013-01-14 10:17:00,14.7,-23.3,29.21,NNW,336,5.4,5.4,16,0.00,,,0.00,VWS V13.01,2013-01-14 16:17:00,
2013-01-14 10:22:00,13.1,-24.7,29.21,ENE,68,2.2,2.7,16,0.00,,,0.00,VWS V13.01,2013-01-14 16:22:00,
2013-01-14 10:27:00,15.8,-22.4,29.21,NNE,22,0.0,0.0,16,0.00,,,0.00,VWS V13.01,2013-01-14 16:27:00,
2013-01-14 10:32:00,17.4,-21.1,29.21,NNW,346,3.1,4.0,16,0.00,,,0.00,VWS V13.01,2013-01-14 16:32:00,
2013-01-14 10:37:00,16.7,-21.7,29.21,NNE,29,2.2,2.7,16,0.00,,,0.00,VWS V13.01,2013-01-14 16:37:00,
2013-01-14 10:42:00,17.8,-22.0,29.23,North,349,0.0,0.0,15,0.00,,,0.00,VWS V13.01,2013-01-14 16:42:00,
2013-01-14 10:47:00,16.7,-21.7,29.23,North,0,0.0,0.0,16,0.00,,,0.00,VWS V13.01,2013-01-14 16:47:00,
2013-01-14 10:52:00,11.8,-25.7,29.23,ESE,112,2.2,2.7,16,0.00,,,0.00,VWS V13.01,2013-01-14 16:52:00,
2013-01-14 10:57:00,10.9,-26.4,29.23,ENE,61,0.0,2.2,16,0.00,,,0.00,VWS V13.01,2013-01-14 16:57:00,
2013-01-14 11:02:00,10.2,-27.0,29.23,East,86,0.0,0.0,16,0.00,,,0.00,VWS V13.01,2013-01-14 17:02:00,
2013-01-14 11:07:00,9.1,-27.9,29.23,NE,55,2.7,3.6,16,0.00,,,0.00,VWS V13.01,2013-01-14 17:07:00,
2013-01-14 11:12:00,9.7,-27.5,29.21,NNE,20,3.6,4.0,16,0.00,,,0.00,VWS V13.01,2013-01-14 17:12:00,
2013-01-14 11:17:00,10.2,-27.0,29.21,East,88,0.0,0.0,16,0.00,,,0.00,VWS V13.01,2013-01-14 17:17:00,
2013-01-14 11:22:00,11.5,-26.0,29.21,ENE,57,0.0,2.7,16,0.00,,,0.00,VWS V13.01,2013-01-14 17:22:00,
2013-01-14 11:27:00,10.4,-26.9,29.21,ENE,68,5.4,5.4,16,0.00,,,0.00,VWS V13.01,2013-01-14 17:27:00,
2013-01-14 11:32:00,11.3,-26.1,29.21,NNE,14,0.0,4.0,16,0.00,,,0.00,VWS V13.01,2013-01-14 17:32:00,
2013-01-14 11:38:00,11.3,-26.1,29.21,North,357,4.0,4.0,16,0.00,,,0.00,VWS V13.01,2013-01-14 17:38:00,
2013-01-14 11:43:00,11.7,-25.9,29.21,East,82,0.0,4.0,16,0.00,,,0.00,VWS V13.01,2013-01-14 17:43:00,
2013-01-14 11:48:00,11.3,-26.1,29.21,North,1,3.6,3.6,16,0.00,,,0.00,VWS V13.01,2013-01-14 17:48:00,
2013-01-14 11:53:00,12.2,-25.4,29.21,ENE,78,2.2,3.1,16,0.00,,,0.00,VWS V13.01,2013-01-14 17:53:00,
2013-01-14 11:58:00,12.7,-25.0,29.21,NNW,341,4.0,4.9,16,0.00,,,0.00,VWS V13.01,2013-01-14 17:58:00,
2013-01-14 12:03:00,12.0,-25.5,29.21,SE,140,2.7,2.7,16,0.00,,,0.00,VWS V13.01,2013-01-14 18:03:00,
2013-01-14 12:08:00,10.4,-26.9,29.21,North,6,3.1,3.1,16,0.00,,,0.00,VWS V13.01,2013-01-14 18:08:00,
2013-01-14 12:13:00,10.4,-26.9,29.21,NNW,336,2.7,2.7,16,0.00,,,0.00,VWS V13.01,2013-01-14 18:13:00,
2013-01-14 12:18:00,12.7,-25.0,29.21,North,357,2.7,2.7,16,0.00,,,0.00,VWS V13.01,2013-01-14 18:18:00,
2013-01-14 12:23:00,14.5,-23.5,29.21,ESE,111,2.7,2.7,16,0.00,,,0.00,VWS V13.01,2013-01-14 18:23:00,
2013-01-14 12:28:00,16.0,-22.3,29.21,NE,37,3.1,3.1,16,0.00,,,0.00,VWS V13.01,2013-01-14 18:28:00,
2013-01-14 12:33:00,16.7,-21.7,29.21,ESE,103,3.6,3.6,16,0.00,,,0.00,VWS V13.01,2013-01-14 18:33:00,
2013-01-14 12:38:00,16.7,-21.7,29.21,NNE,31,3.1,3.6,16,0.00,,,0.00,VWS V13.01,2013-01-14 18:38:00,
2013-01-14 12:43:00,19.0,-21.0,29.21,North,6,3.6,3.6,15,0.00,,,0.00,VWS V13.01,2013-01-14 18:43:00,
2013-01-14 12:48:00,16.2,-22.1,29.21,ESE,110,3.1,3.1,16,0.00,,,0.00,VWS V13.01,2013-01-14 18:48:00,
2013-01-14 12:53:00,16.2,-22.1,29.18,East,84,2.7,4.0,16,0.00,,,0.00,VWS V13.01,2013-01-14 18:53:00,
2013-01-14 12:58:00,14.4,-23.6,29.18,SE,124,5.8,5.8,16,0.00,,,0.00,VWS V13.01,2013-01-14 18:58:00,
2013-01-14 13:03:00,16.3,-22.0,29.18,NE,46,3.1,3.1,16,0.00,,,0.00,VWS V13.01,2013-01-14 19:03:00,
2013-01-14 13:08:00,15.4,-22.7,29.18,NE,54,4.0,4.0,16,0.00,,,0.00,VWS V13.01,2013-01-14 19:08:00,
2013-01-14 13:13:00,17.6,-20.9,29.18,NNE,15,2.7,3.1,16,0.00,,,0.00,VWS V13.01,2013-01-14 19:13:00,
2013-01-14 13:18:00,15.8,-22.4,29.18,East,90,4.0,4.9,16,0.00,,,0.00,VWS V13.01,2013-01-14 19:18:00,
2013-01-14 13:23:00,15.8,-22.4,29.18,NNW,342,3.6,3.6,16,0.00,,,0.00,VWS V13.01,2013-01-14 19:23:00,
2013-01-14 13:28:00,16.5,-21.8,29.18,East,100,2.7,3.1,16,0.00,,,0.00,VWS V13.01,2013-01-14 19:28:00,
2013-01-14 13:33:00,17.2,-21.2,29.18,SSW,212,0.0,0.0,16,0.00,,,0.00,VWS V13.01,2013-01-14 19:33:00,
2013-01-14 13:38:00,16.0,-22.3,29.18,NE,40,3.6,3.6,16,0.00,,,0.00,VWS V13.01,2013-01-14 19:38:00,
2013-01-14 13:43:00,13.3,-24.5,29.18,ENE,73,4.0,5.8,16,0.00,,,0.00,VWS V13.01,2013-01-14 19:43:00,
2013-01-14 13:47:00,13.6,-24.2,29.18,NNE,27,4.0,4.0,16,0.00,,,0.00,VWS V13.01,2013-01-14 19:47:00,
2013-01-14 13:52:00,14.0,-22.8,29.18,NNE,24,6.3,6.3,17,0.00,,,0.00,VWS V13.01,2013-01-14 19:52:00,
2013-01-14 13:57:00,13.3,-23.4,29.18,East,91,5.8,5.8,17,0.00,,,0.00,VWS V13.01,2013-01-14 19:57:00,
2013-01-14 14:02:00,13.3,-23.4,29.18,East,84,4.0,4.0,17,0.00,,,0.00,VWS V13.01,2013-01-14 20:02:00,
2013-01-14 14:08:00,13.1,-23.5,29.18,East,100,0.0,0.0,17,0.00,,,0.00,VWS V13.01,2013-01-14 20:08:00,
2013-01-14 14:12:00,12.7,-23.8,29.18,East,82,4.0,4.0,17,0.00,,,0.00,VWS V13.01,2013-01-14 20:12:00,
2013-01-14 14:17:00,12.6,-24.0,29.18,NW,313,2.7,5.4,17,0.00,,,0.00,VWS V13.01,2013-01-14 20:17:00,
2013-01-14 14:22:00,12.0,-24.4,29.18,NE,35,2.7,2.7,17,0.00,,,0.00,VWS V13.01,2013-01-14 20:22:00,
2013-01-14 14:27:00,12.2,-24.3,29.18,NNW,333,0.0,0.0,17,0.00,,,0.00,VWS V13.01,2013-01-14 20:27:00,
2013-01-14 14:32:00,11.8,-24.6,29.18,North,0,2.2,2.2,17,0.00,,,0.00,VWS V13.01,2013-01-14 20:32:00,
2013-01-14 14:37:00,12.0,-24.4,29.18,NW,320,3.1,3.1,17,0.00,,,0.00,VWS V13.01,2013-01-14 20:37:00,
2013-01-14 14:42:00,12.9,-23.7,29.18,NNE,28,3.6,3.6,17,0.00,,,0.00,VWS V13.01,2013-01-14 20:42:00,
2013-01-14 14:47:00,13.1,-23.5,29.18,East,89,0.0,2.2,17,0.00,,,0.00,VWS V13.01,2013-01-14 20:47:00,
2013-01-14 14:52:00,14.4,-23.6,29.18,NNE,31,2.2,2.2,16,0.00,,,0.00,VWS V13.01,2013-01-14 20:52:00,
2013-01-14 14:57:00,13.8,-24.1,29.18,WNW,299,4.0,4.0,16,0.00,,,0.00,VWS V13.01,2013-01-14 20:57:00,
2013-01-14 15:02:00,14.4,-23.6,29.18,NW,318,4.0,4.0,16,0.00,,,0.00,VWS V13.01,2013-01-14 21:02:00,
2013-01-14 15:07:00,14.2,-23.8,29.18,NNE,22,2.7,3.1,16,0.00,,,0.00,VWS V13.01,2013-01-14 21:07:00,
2013-01-14 15:12:00,16.5,-21.8,29.18,NNE,20,2.2,2.2,16,0.00,,,0.00,VWS V13.01,2013-01-14 21:12:00,
2013-01-14 15:17:00,16.3,-22.0,29.18,North,0,3.6,3.6,16,0.00,,,0.00,VWS V13.01,2013-01-14 21:17:00,
2013-01-14 15:22:00,17.1,-21.4,29.18,North,357,0.0,0.0,16,0.00,,,0.00,VWS V13.01,2013-01-14 21:22:00,
2013-01-14 15:27:00,17.4,-21.1,29.18,NW,304,3.1,3.6,16,0.00,,,0.00,VWS V13.01,2013-01-14 21:27:00,
2013-01-14 15:32:00,16.9,-21.5,29.18,WNW,283,3.6,4.0,16,0.00,,,0.00,VWS V13.01,2013-01-14 21:32:00,
2013-01-14 15:37:00,16.2,-22.1,29.18,NNW,329,4.9,4.9,16,0.00,,,0.00,VWS V13.01,2013-01-14 21:37:00,
2013-01-14 15:42:00,15.6,-22.6,29.18,NNW,334,3.6,4.0,16,0.00,,,0.00,VWS V13.01,2013-01-14 21:42:00,
2013-01-14 15:47:00,16.5,-21.8,29.18,NNW,344,3.1,3.1,16,0.00,,,0.00,VWS V13.01,2013-01-14 21:47:00,
2013-01-14 15:52:00,15.1,-23.0,29.18,NNW,343,0.0,0.0,16,0.00,,,0.00,VWS V13.01,2013-01-14 21:52:00,
2013-01-14 15:57:00,12.9,-23.7,29.18,NNW,327,3.6,3.6,17,0.00,,,0.00,VWS V13.01,2013-01-14 21:57:00,
2013-01-14 16:02:00,11.3,-25.0,29.18,NW,324,3.1,3.6,17,0.00,,,0.00,VWS V13.01,2013-01-14 22:02:00,
2013-01-14 16:07:00,10.2,-25.9,29.18,NW,320,4.0,4.9,17,0.00,,,0.00,VWS V13.01,2013-01-14 22:07:00,
2013-01-14 16:12:00,9.0,-27.0,29.18,NW,323,4.0,4.9,17,0.00,,,0.00,VWS V13.01,2013-01-14 22:12:00,
2013-01-14 16:17:00,8.4,-27.4,29.18,NNW,336,5.4,5.4,17,0.00,,,0.00,VWS V13.01,2013-01-14 22:17:00,
2013-01-14 16:22:00,8.4,-27.4,29.18,NW,320,5.8,5.8,17,0.00,,,0.00,VWS V13.01,2013-01-14 22:22:00,
2013-01-14 16:27:00,8.1,-27.7,29.18,NNW,330,5.4,5.4,17,0.00,,,0.00,VWS V13.01,2013-01-14 22:27:00,
2013-01-14 16:32:00,7.9,-27.9,29.18,NW,318,6.3,6.3,17,0.00,,,0.00,VWS V13.01,2013-01-14 22:32:00,
2013-01-14 16:37:00,7.9,-27.9,29.18,NW,313,6.3,6.3,17,0.00,,,0.00,VWS V13.01,2013-01-14 22:37:00,
2013-01-14 16:42:00,7.5,-28.2,29.18,NW,320,5.4,5.4,17,0.00,,,0.00,VWS V13.01,2013-01-14 22:42:00,
2013-01-14 16:47:00,7.5,-28.2,29.18,NW,325,5.4,5.8,17,0.00,,,0.00,VWS V13.01,2013-01-14 22:47:00,
2013-01-14 16:52:00,7.2,-28.5,29.18,NW,324,3.6,6.3,17,0.00,,,0.00,VWS V13.01,2013-01-14 22:52:00,
2013-01-14 16:58:00,7.0,-28.6,29.18,NW,316,4.9,4.9,17,0.00,,,0.00,VWS V13.01,2013-01-14 22:58:00,
2013-01-14 17:03:00,7.0,-28.6,29.18,NW,318,5.4,5.4,17,0.00,,,0.00,VWS V13.01,2013-01-14 23:03:00,
2013-01-14 17:08:00,6.6,-28.9,29.18,NNW,332,3.1,4.9,17,0.00,,,0.00,VWS V13.01,2013-01-14 23:08:00,
2013-01-14 17:13:00,6.3,-29.2,29.18,NW,319,3.1,5.4,17,0.00,,,0.00,VWS V13.01,2013-01-14 23:13:00,
2013-01-14 17:18:00,5.7,-29.7,29.18,NW,317,3.1,3.1,17,0.00,,,0.00,VWS V13.01,2013-01-14 23:18:00,
2013-01-14 17:23:00,5.5,-29.8,29.18,North,0,2.7,3.1,17,0.00,,,0.00,VWS V13.01,2013-01-14 23:23:00,
2013-01-14 17:28:00,5.5,-29.8,29.18,NNW,336,2.7,2.7,17,0.00,,,0.00,VWS V13.01,2013-01-14 23:28:00,
2013-01-14 17:33:00,4.8,-30.4,29.18,North,353,0.0,0.0,17,0.00,,,0.00,VWS V13.01,2013-01-14 23:33:00,
2013-01-14 17:38:00,4.5,-30.7,29.18,NNW,341,0.0,0.0,17,0.00,,,0.00,VWS V13.01,2013-01-14 23:38:00,
2013-01-14 17:43:00,4.8,-30.4,29.18,NNW,335,0.0,0.0,17,0.00,,,0.00,VWS V13.01,2013-01-14 23:43:00,
2013-01-14 17:48:00,5.0,-30.3,29.18,NNW,335,0.0,0.0,17,0.00,,,0.00,VWS V13.01,2013-01-14 23:48:00,
2013-01-14 17:53:00,5.0,-30.3,29.18,NNW,335,0.0,0.0,17,0.00,,,0.00,VWS V13.01,2013-01-14 23:53:00,
2013-01-14 17:58:00,4.8,-30.4,29.18,NNW,335,0.0,0.0,17,0.00,,,0.00,VWS V13.01,2013-01-14 23:58:00,
2013-01-14 18:03:00,5.0,-30.3,29.18,NNW,335,0.0,0.0,17,0.00,,,0.00,VWS V13.01,2013-01-15 00:03:00,
2013-01-14 18:08:00,5.9,-29.5,29.18,NW,315,3.1,3.1,17,0.00,,,0.00,VWS V13.01,2013-01-15 00:08:00,
2013-01-14 18:13:00,7.0,-28.6,29.18,WNW,297,2.7,2.7,17,0.00,,,0.00,VWS V13.01,2013-01-15 00:13:00,
2013-01-14 18:18:00,6.8,-28.8,29.18,NW,321,2.7,2.7,17,0.00,,,0.00,VWS V13.01,2013-01-15 00:18:00,
2013-01-14 18:23:00,7.2,-28.5,29.18,WNW,295,3.1,3.6,17,0.00,,,0.00,VWS V13.01,2013-01-15 00:23:00,
2013-01-14 18:31:00,7.3,-28.3,29.18,WNW,298,3.6,3.6,17,0.00,,,0.00,VWS V13.01,2013-01-15 00:31:00,
2013-01-14 18:36:00,7.2,-28.5,29.18,NW,310,3.1,5.4,17,0.00,,,0.00,VWS V13.01,2013-01-15 00:36:00,
2013-01-14 18:41:00,7.0,-28.6,29.18,WNW,302,3.6,3.6,17,0.00,,,0.00,VWS V13.01,2013-01-15 00:41:00,
2013-01-14 18:46:00,6.3,-29.2,29.18,NW,308,4.0,4.0,17,0.00,,,0.00,VWS V13.01,2013-01-15 00:46:00,
2013-01-14 18:51:00,5.9,-29.5,29.18,NW,317,3.6,3.6,17,0.00,,,0.00,VWS V13.01,2013-01-15 00:51:00,
2013-01-14 18:56:00,5.9,-29.5,29.18,NW,322,4.0,4.0,17,0.00,,,0.00,VWS V13.01,2013-01-15 00:56:00,
2013-01-14 19:01:00,6.3,-29.2,29.18,NW,313,4.0,4.0,17,0.00,,,0.00,VWS V13.01,2013-01-15 01:01:00,
2013-01-14 19:06:00,6.8,-28.8,29.18,WNW,296,3.1,3.6,17,0.00,,,0.00,VWS V13.01,2013-01-15 01:06:00,
2013-01-14 19:11:00,6.8,-28.8,29.18,WNW,302,4.0,4.0,17,0.00,,,0.00,VWS V13.01,2013-01-15 01:11:00,
2013-01-14 19:16:00,6.8,-28.8,29.18,NW,306,3.6,3.6,17,0.00,,,0.00,VWS V13.01,2013-01-15 01:16:00,
2013-01-14 19:21:00,7.0,-28.6,29.18,WNW,302,2.7,3.6,17,0.00,,,0.00,VWS V13.01,2013-01-15 01:21:00,
2013-01-14 19:26:00,7.0,-28.6,29.15,NW,306,2.7,3.6,17,0.00,,,0.00,VWS V13.01,2013-01-15 01:26:00,
2013-01-14 19:31:00,7.2,-28.5,29.15,WNW,300,3.1,3.1,17,0.00,,,0.00,VWS V13.01,2013-01-15 01:31:00,
2013-01-14 19:36:00,7.3,-28.3,29.15,NW,307,3.6,3.6,17,0.00,,,0.00,VWS V13.01,2013-01-15 01:36:00,
2013-01-14 19:41:00,7.7,-28.0,29.15,WNW,302,4.0,4.5,17,0.00,,,0.00,VWS V13.01,2013-01-15 01:41:00,
2013-01-14 19:46:00,7.7,-28.0,29.15,NW,305,3.1,3.6,17,0.00,,,0.00,VWS V13.01,2013-01-15 01:46:00,
2013-01-14 19:51:00,7.7,-28.0,29.15,NW,307,2.7,3.1,17,0.00,,,0.00,VWS V13.01,2013-01-15 01:51:00,
2013-01-14 19:56:00,7.7,-28.0,29.15,NNW,328,4.9,4.9,17,0.00,,,0.00,VWS V13.01,2013-01-15 01:56:00,
2013-01-14 20:01:00,7.9,-27.9,29.15,WNW,284,3.6,4.0,17,0.00,,,0.00,VWS V13.01,2013-01-15 02:01:00,
2013-01-14 20:06:00,8.1,-27.7,29.15,WNW,290,4.0,4.0,17,0.00,,,0.00,VWS V13.01,2013-01-15 02:06:00,
2013-01-14 20:11:00,8.1,-27.7,29.12,WNW,289,4.0,5.4,17,0.00,,,0.00,VWS V13.01,2013-01-15 02:11:00,
2013-01-14 20:16:00,8.1,-27.7,29.12,NW,314,4.0,4.0,17,0.00,,,0.00,VWS V13.01,2013-01-15 02:16:00,
2013-01-14 20:21:00,8.4,-27.4,29.12,NW,315,5.8,5.8,17,0.00,,,0.00,VWS V13.01,2013-01-15 02:21:00,
2013-01-14 20:26:00,8.4,-27.4,29.15,NW,312,5.8,5.8,17,0.00,,,0.00,VWS V13.01,2013-01-15 02:26:00,
2013-01-14 20:31:00,8.4,-27.4,29.15,NW,315,5.4,5.4,17,0.00,,,0.00,VWS V13.01,2013-01-15 02:31:00,
2013-01-14 20:36:00,8.6,-27.3,29.15,NW,314,5.8,6.7,17,0.00,,,0.00,VWS V13.01,2013-01-15 02:36:00,
2013-01-14 20:41:00,8.4,-27.4,29.12,NW,325,5.4,5.8,17,0.00,,,0.00,VWS V13.01,2013-01-15 02:41:00,
2013-01-14 20:46:00,8.4,-27.4,29.12,NNW,327,4.9,5.4,17,0.00,,,0.00,VWS V13.01,2013-01-15 02:46:00,
2013-01-14 20:51:00,8.6,-27.3,29.12,NW,315,6.3,6.7,17,0.00,,,0.00,VWS V13.01,2013-01-15 02:51:00,
2013-01-14 20:56:00,8.6,-27.3,29.12,NW,319,6.7,6.7,17,0.00,,,0.00,VWS V13.01,2013-01-15 02:56:00,
2013-01-14 21:01:00,8.4,-27.4,29.12,NW,320,5.4,5.8,17,0.00,,,0.00,VWS V13.01,2013-01-15 03:01:00,
2013-01-14 21:06:00,8.6,-27.3,29.12,NW,307,3.6,4.0,17,0.00,,,0.00,VWS V13.01,2013-01-15 03:06:00,
2013-01-14 21:11:00,8.4,-27.4,29.12,WNW,303,4.0,5.8,17,0.00,,,0.00,VWS V13.01,2013-01-15 03:11:00,
2013-01-14 21:16:00,8.2,-27.6,29.12,WNW,300,3.6,3.6,17,0.00,,,0.00,VWS V13.01,2013-01-15 03:16:00,
2013-01-14 21:21:00,8.1,-27.7,29.12,WNW,291,4.0,5.4,17,0.00,,,0.00,VWS V13.01,2013-01-15 03:21:00,
2013-01-14 21:26:00,8.2,-27.6,29.12,WNW,287,4.9,4.9,17,0.00,,,0.00,VWS V13.01,2013-01-15 03:26:00,
2013-01-14 21:31:00,7.9,-27.9,29.12,WNW,290,4.0,4.0,17,0.00,,,0.00,VWS V13.01,2013-01-15 03:31:00,
2013-01-14 21:36:00,8.1,-27.7,29.12,WNW,287,4.0,4.0,17,0.00,,,0.00,VWS V13.01,2013-01-15 03:36:00,
2013-01-14 21:41:00,8.2,-27.6,29.12,West,280,5.4,5.4,17,0.00,,,0.00,VWS V13.01,2013-01-15 03:41:00,
2013-01-14 21:46:00,8.1,-27.7,29.12,WNW,286,3.6,3.6,17,0.00,,,0.00,VWS V13.01,2013-01-15 03:46:00,
2013-01-14 21:51:00,8.1,-27.7,29.12,WNW,301,4.0,4.0,17,0.00,,,0.00,VWS V13.01,2013-01-15 03:51:00,
2013-01-14 21:56:00,8.1,-27.7,29.12,West,281,5.4,5.4,17,0.00,,,0.00,VWS V13.01,2013-01-15 03:56:00,
2013-01-14 22:01:00,7.9,-27.9,29.12,WNW,298,4.0,4.0,17,0.00,,,0.00,VWS V13.01,2013-01-15 04:01:00,
2013-01-14 22:06:00,7.9,-27.9,29.12,WNW,296,3.6,4.0,17,0.00,,,0.00,VWS V13.01,2013-01-15 04:06:00,
2013-01-14 22:11:00,7.7,-28.0,29.12,WNW,285,3.1,3.6,17,0.00,,,0.00,VWS V13.01,2013-01-15 04:11:00,
2013-01-14 22:16:00,7.9,-27.9,29.12,WNW,287,4.0,4.9,17,0.00,,,0.00,VWS V13.01,2013-01-15 04:16:00,
2013-01-14 22:21:00,7.9,-27.9,29.12,WNW,286,4.0,5.4,17,0.00,,,0.00,VWS V13.01,2013-01-15 04:21:00,
2013-01-14 22:26:00,7.9,-27.9,29.09,WNW,300,4.0,4.0,17,0.00,,,0.00,VWS V13.01,2013-01-15 04:26:00,
2013-01-14 22:31:00,7.9,-27.9,29.09,WNW,297,3.6,4.0,17,0.00,,,0.00,VWS V13.01,2013-01-15 04:31:00,
2013-01-14 22:36:00,7.7,-28.0,29.09,WNW,285,3.6,3.6,17,0.00,,,0.00,VWS V13.01,2013-01-15 04:36:00,
2013-01-14 22:41:00,7.7,-28.0,29.09,West,279,3.6,4.0,17,0.00,,,0.00,VWS V13.01,2013-01-15 04:41:00,
2013-01-14 22:46:00,7.5,-28.2,29.09,WNW,285,4.0,4.0,17,0.00,,,0.00,VWS V13.01,2013-01-15 04:46:00,
2013-01-14 22:51:00,7.9,-27.9,29.09,WNW,284,5.8,5.8,17,0.00,,,0.00,VWS V13.01,2013-01-15 04:51:00,
2013-01-14 22:56:00,7.7,-28.0,29.09,WNW,287,4.0,4.0,17,0.00,,,0.00,VWS V13.01,2013-01-15 04:56:00,
2013-01-14 23:00:00,7.7,-28.0,29.09,WNW,286,4.0,5.4,17,0.00,,,0.00,VWS V13.01,2013-01-15 05:00:00,
2013-01-14 23:01:00,7.7,-28.0,29.09,West,272,3.1,4.0,17,0.00,,,0.00,VWS V13.01,2013-01-15 05:01:00,
2013-01-14 23:06:00,8.1,-27.7,29.09,WNW,303,6.3,7.6,17,0.00,,,0.00,VWS V13.01,2013-01-15 05:06:00,
2013-01-14 23:11:00,8.1,-27.7,29.09,NW,314,5.4,6.3,17,0.00,,,0.00,VWS V13.01,2013-01-15 05:11:00,
2013-01-14 23:16:00,8.6,-27.3,29.09,WNW,297,7.6,7.6,17,0.00,,,0.00,VWS V13.01,2013-01-15 05:16:00,
2013-01-14 23:21:00,8.6,-27.3,29.09,WNW,303,7.2,7.6,17,0.00,,,0.00,VWS V13.01,2013-01-15 05:21:00,
2013-01-14 23:26:00,8.4,-27.4,29.09,NW,312,5.8,5.8,17,0.00,,,0.00,VWS V13.01,2013-01-15 05:26:00,
2013-01-14 23:31:00,8.1,-27.7,29.09,WNW,302,6.3,6.3,17,0.00,,,0.00,VWS V13.01,2013-01-15 05:31:00,
2013-01-14 23:36:00,8.6,-27.3,29.09,WNW,301,5.4,6.3,17,0.00,,,0.00,VWS V13.01,2013-01-15 05:36:00,
2013-01-14 23:41:00,8.6,-27.3,29.09,WNW,297,8.3,8.3,17,0.00,,,0.00,VWS V13.01,2013-01-15 05:41:00,
2013-01-14 23:46:00,9.1,-26.8,29.09,NW,307,8.7,8.7,17,0.00,,,0.00,VWS V13.01,2013-01-15 05:46:00,
2013-01-14 23:51:00,8.6,-27.3,29.09,NW,317,7.6,7.6,17,0.00,,,0.00,VWS V13.01,2013-01-15 05:51:00,
2013-01-14 23:56:00,8.4,-27.4,29.09,NNW,330,4.0,4.0,17,0.00,,,0.00,VWS V13.01,2013-01-15 05:56:00,